Rochester, NY (14602)

6:49 PM EST on December 02, 2016 (GMT -0500)
South Wedge | | Change Station

Elev 525 ft 43.14 °N, 77.61 °W | Updated 14 seconds ago

Overcast
Overcast
38.7 °F
Feels Like 35 °F
N
5.0
Wind Variable Wind from SSW

Today
High -- | Low -- °F
--% Chance of Precip.
Yesterday
High -- | Low -- °F
Precip. -- in
Pressure 29.91 in
Visibility 10.0 miles
Clouds Mostly Cloudy 3400 ft
Overcast 5000 ft
Windchill 35 °F
Dew Point 30 °F
Humidity 73%
Rainfall 0.00 in
Snow Depth Not available.
7:24 AM 4:35 PM
Waxing Crescent, 11% visible
METAR KROC 022254Z 26010G23KT 10SM BKN034 OVC050 04/M02 A2989 RMK AO2 SLP129 T00441017
Pressure 29.91 in
Visibility 10.0 miles
Clouds Mostly Cloudy 3400 ft
Overcast 5000 ft
Windchill 35 °F
Dew Point 30 °F
Humidity 73%
Rainfall 0.00 in
Snow Depth Not available.
7:24 AM 4:35 PM
Waxing Crescent, 11% visible
METAR KROC 022254Z 26010G23KT 10SM BKN034 OVC050 04/M02 A2989 RMK AO2 SLP129 T00441017

10-Day Weather Forecast

Almanac

Astronomy

Dec. 02, 2016 Rise Set
Actual Time
Civil Twilight
Nautical Twilight
Astronomical Twilight
Moon
Length of Visible Light
Length of Day
Tomorrow will be .
, % of the Moon is Illuminated

Today's Extremes

State Highs State Lows

Community

WunderPhotos

Upload Photos

1,955,379 photos uploaded!

WunderBlog® & News

Nearby

Air Quality

  Air Quality AQ Index Pollutant
Not available.

Snow Depth

Station Depth Elevation

Earthquake Activity

City Distance Mag. Time & Date
Minimum magnitude displayed is 2.5.

Coastal Water Temperatures

Place Temperature

Stations

Nearby Weather Stations

Station Location Temp. Windchill Dew Point Humidity Wind Precip. Elev Updated Type
                   

Watches & Warnings

There are currently no watches in effect.